createdAt,value
2022-10-11T00:02:36.000Z,14.35
2022-10-11T00:07:35.000Z,14.53
2022-10-11T00:12:35.000Z,13.2
2022-10-11T00:17:35.000Z,12.84
2022-10-11T00:22:35.000Z,12.7
2022-10-11T00:27:34.000Z,13.77
2022-10-11T00:32:35.000Z,12.77
2022-10-11T00:37:35.000Z,11.18
2022-10-11T00:42:35.000Z,10.99
2022-10-11T00:47:34.000Z,12.73
2022-10-11T00:52:35.000Z,12.2
2022-10-11T00:57:35.000Z,11.69
2022-10-11T01:02:35.000Z,13.09
2022-10-11T01:07:35.000Z,11.74
2022-10-11T01:12:35.000Z,12.35
2022-10-11T01:17:35.000Z,13.2
2022-10-11T01:22:34.000Z,13.2
2022-10-11T01:27:35.000Z,10.92
2022-10-11T01:32:34.000Z,10.84
2022-10-11T01:37:35.000Z,11.26
2022-10-11T01:42:35.000Z,9.91
2022-10-11T01:47:34.000Z,12.23
2022-10-11T01:52:34.000Z,11.81
2022-10-11T01:57:34.000Z,14.91
2022-10-11T02:02:35.000Z,11.48
2022-10-11T02:07:34.000Z,10.15
2022-10-11T02:12:35.000Z,10.03
2022-10-11T02:17:35.000Z,10.33
2022-10-11T02:22:35.000Z,11.78
2022-10-11T02:27:34.000Z,12.72
2022-10-11T02:32:35.000Z,11.79
2022-10-11T02:42:35.000Z,10.9
2022-10-11T02:47:35.000Z,10.34
2022-10-11T02:52:35.000Z,12.04
2022-10-11T02:57:35.000Z,12.39
2022-10-11T03:02:35.000Z,12.75
2022-10-11T03:07:34.000Z,16.57
2022-10-11T03:12:35.000Z,11.42
2022-10-11T03:17:46.000Z,13.48
2022-10-11T03:22:35.000Z,13.31
2022-10-11T03:27:35.000Z,12.65
2022-10-11T03:32:34.000Z,10.73
2022-10-11T03:37:34.000Z,12.24
2022-10-11T03:42:35.000Z,10.7
2022-10-11T03:47:34.000Z,10.4
2022-10-11T03:52:34.000Z,10.4
2022-10-11T03:57:34.000Z,12.54
2022-10-11T04:02:35.000Z,14.17
2022-10-11T04:07:35.000Z,13.09
2022-10-11T04:12:35.000Z,14.44
2022-10-11T04:17:34.000Z,16.25
2022-10-11T04:22:34.000Z,13.08
2022-10-11T04:27:35.000Z,18.32
2022-10-11T04:32:35.000Z,17.17
2022-10-11T04:42:34.000Z,11.71
2022-10-11T04:47:35.000Z,18.66
2022-10-11T04:52:36.000Z,18.39
2022-10-11T04:57:34.000Z,15.7
2022-10-11T05:02:35.000Z,20.15
2022-10-11T05:07:35.000Z,14.14
2022-10-11T05:12:35.000Z,14.14
2022-10-11T05:17:35.000Z,18.02
2022-10-11T05:22:34.000Z,15.28
2022-10-11T05:27:35.000Z,14.1
2022-10-11T05:32:38.000Z,14.42
2022-10-11T05:37:34.000Z,14.67
2022-10-11T05:47:34.000Z,17.23
2022-10-11T05:52:35.000Z,15.7
2022-10-11T05:57:35.000Z,16.71
2022-10-11T06:02:34.000Z,16.16
2022-10-11T06:07:34.000Z,16.05
2022-10-11T06:12:34.000Z,17.26
2022-10-11T06:17:35.000Z,16.36
2022-10-11T06:22:34.000Z,16.36
2022-10-11T06:27:34.000Z,14.56
2022-10-11T06:32:35.000Z,18.62
2022-10-11T06:37:34.000Z,17.73
2022-10-11T06:42:35.000Z,13.73
2022-10-11T06:47:35.000Z,15.3
2022-10-11T06:52:35.000Z,12.07
2022-10-11T06:57:35.000Z,10.44
2022-10-11T07:02:35.000Z,9.9
2022-10-11T07:07:34.000Z,9.04
2022-10-11T07:12:35.000Z,8.09
2022-10-11T07:17:35.000Z,8.18
2022-10-11T07:22:35.000Z,8.06
2022-10-11T07:27:34.000Z,8.08
2022-10-11T07:32:35.000Z,9.44
2022-10-11T07:37:34.000Z,9.44
2022-10-11T07:42:34.000Z,7.98
2022-10-11T07:47:34.000Z,8.43
2022-10-11T07:52:35.000Z,7.12
2022-10-11T07:57:34.000Z,5.43
2022-10-11T08:02:35.000Z,5.06
2022-10-11T08:07:34.000Z,5.31
2022-10-11T08:12:35.000Z,4.93
2022-10-11T08:17:35.000Z,4.72
2022-10-11T08:27:34.000Z,7.73
2022-10-11T08:32:34.000Z,6.01
2022-10-11T08:37:35.000Z,10.82
2022-10-11T08:42:34.000Z,12.58
2022-10-11T08:47:35.000Z,22.11
2022-10-11T08:52:34.000Z,5.96
2022-10-11T08:57:35.000Z,5.96
2022-10-11T09:02:35.000Z,6.15
2022-10-11T09:07:35.000Z,6.58
2022-10-11T09:12:41.000Z,6.1
2022-10-11T09:17:34.000Z,6.1
2022-10-11T09:22:40.000Z,5.44
2022-10-11T09:28:07.000Z,6.58
2022-10-11T09:32:34.000Z,3.6
2022-10-11T09:37:35.000Z,4.88
2022-10-11T09:42:34.000Z,25.46
2022-10-11T09:47:35.000Z,6.77
2022-10-11T09:52:35.000Z,4.85
2022-10-11T09:57:34.000Z,3.95
2022-10-11T10:02:34.000Z,3.83
2022-10-11T10:07:35.000Z,6.12
2022-10-11T10:12:35.000Z,4.3
2022-10-11T10:17:35.000Z,3.33
2022-10-11T10:22:34.000Z,4.01
2022-10-11T10:27:35.000Z,4.01
2022-10-11T10:32:34.000Z,3.65
2022-10-11T10:37:35.000Z,2.95
2022-10-11T10:42:35.000Z,8.8
2022-10-11T10:47:42.000Z,7.01
2022-10-11T10:52:34.000Z,4.12
2022-10-11T10:57:33.000Z,4.25
2022-10-11T11:02:50.000Z,4.59
2022-10-11T11:07:35.000Z,4.69
2022-10-11T11:12:35.000Z,4.23
2022-10-11T11:17:35.000Z,4.23
2022-10-11T11:22:41.000Z,6.46
2022-10-11T11:27:35.000Z,6.37
2022-10-11T11:32:35.000Z,5.66
2022-10-11T11:37:34.000Z,8.39
2022-10-11T11:42:34.000Z,4.23
2022-10-11T11:47:34.000Z,4.73
2022-10-11T11:52:34.000Z,5.86
2022-10-11T11:57:35.000Z,5.12
2022-10-11T12:02:35.000Z,6.17
2022-10-11T12:12:34.000Z,4.53
2022-10-11T12:17:34.000Z,7.55
2022-10-11T12:22:35.000Z,7.7
2022-10-11T12:27:35.000Z,9.49
2022-10-11T12:32:35.000Z,6.4
2022-10-11T12:37:35.000Z,6.35
2022-10-11T12:42:34.000Z,8.92
2022-10-11T12:47:34.000Z,5.98
2022-10-11T12:52:34.000Z,5.85
2022-10-11T12:57:35.000Z,7.07
2022-10-11T13:02:35.000Z,10.38
2022-10-11T13:07:34.000Z,11.18
2022-10-11T13:12:35.000Z,11.18
2022-10-11T13:17:34.000Z,9.02
2022-10-11T13:22:35.000Z,7.45
2022-10-11T13:27:35.000Z,9.83
2022-10-11T13:32:35.000Z,9.49
2022-10-11T13:37:34.000Z,10.36
2022-10-11T13:42:35.000Z,12.18
2022-10-11T13:47:35.000Z,12.86
2022-10-11T13:57:34.000Z,14.57
2022-10-11T14:02:34.000Z,14.51
2022-10-11T14:12:35.000Z,14.9
2022-10-11T14:17:34.000Z,15.45
2022-10-11T14:22:35.000Z,20.22
2022-10-11T14:27:34.000Z,18.17
2022-10-11T14:32:34.000Z,18.17
2022-10-11T14:37:34.000Z,24.69
2022-10-11T14:42:35.000Z,27.65
2022-10-11T14:47:35.000Z,23.87
2022-10-11T14:52:34.000Z,23.29
2022-10-11T14:57:35.000Z,20.96
2022-10-11T15:02:35.000Z,23.63
2022-10-11T15:07:34.000Z,24.41
2022-10-11T15:12:34.000Z,22.27
2022-10-11T15:17:35.000Z,23.7
2022-10-11T15:22:35.000Z,24.49
2022-10-11T15:27:35.000Z,25.03
2022-10-11T15:32:34.000Z,25
2022-10-11T15:37:34.000Z,21.31
2022-10-11T15:42:35.000Z,23.19
2022-10-11T15:47:35.000Z,23.19
2022-10-11T15:52:35.000Z,20.22
2022-10-11T15:57:34.000Z,25.98
2022-10-11T16:02:34.000Z,26.77
2022-10-11T16:07:35.000Z,29.09
2022-10-11T16:12:35.000Z,35.05
2022-10-11T16:17:35.000Z,37
2022-10-11T16:22:35.000Z,34.84
2022-10-11T16:27:34.000Z,30.47
2022-10-11T16:32:34.000Z,23.54
2022-10-11T16:37:35.000Z,21.95
2022-10-11T16:42:35.000Z,23.46
2022-10-11T16:47:35.000Z,20.89
2022-10-11T16:52:35.000Z,20.56
2022-10-11T17:02:41.000Z,19.9
2022-10-11T17:07:34.000Z,23.02
2022-10-11T17:12:35.000Z,24.04
2022-10-11T17:17:35.000Z,44.24
2022-10-11T17:22:35.000Z,34.82
2022-10-11T17:27:34.000Z,44.21
2022-10-11T17:32:34.000Z,47.2
2022-10-11T17:37:35.000Z,59.26
2022-10-11T17:42:34.000Z,62.2
2022-10-11T17:47:35.000Z,55.18
2022-10-11T17:52:34.000Z,57.07
2022-10-11T17:57:34.000Z,64.18
2022-10-11T18:02:34.000Z,69.69
2022-10-11T18:07:35.000Z,69.69
2022-10-11T18:12:35.000Z,76.2
2022-10-11T18:17:35.000Z,83.85
2022-10-11T18:22:34.000Z,86.13
2022-10-11T18:27:35.000Z,78.21
2022-10-11T18:32:35.000Z,75.06
2022-10-11T18:42:35.000Z,71.34
2022-10-11T18:47:35.000Z,67.21
2022-10-11T18:52:35.000Z,62.48
2022-10-11T18:57:35.000Z,52.5
2022-10-11T19:02:35.000Z,52.5
2022-10-11T19:12:34.000Z,44.99
2022-10-11T19:17:35.000Z,45.01
2022-10-11T19:22:35.000Z,46.12
2022-10-11T19:27:34.000Z,44.45
2022-10-11T19:32:35.000Z,46.64
2022-10-11T19:37:35.000Z,47.15
2022-10-11T19:42:35.000Z,41.78
2022-10-11T19:47:34.000Z,33.48
2022-10-11T19:52:35.000Z,35.87
2022-10-11T19:57:34.000Z,38.58
2022-10-11T20:02:35.000Z,44.72
2022-10-11T20:07:35.000Z,41.66
2022-10-11T20:12:34.000Z,41.66
2022-10-11T20:17:35.000Z,40.07
2022-10-11T20:22:35.000Z,40.1
2022-10-11T20:27:34.000Z,38.72
2022-10-11T20:32:35.000Z,40.53
2022-10-11T20:37:34.000Z,41.19
2022-10-11T20:42:39.000Z,43.26
2022-10-11T20:47:34.000Z,46.34
2022-10-11T20:52:34.000Z,44.72
2022-10-11T20:57:35.000Z,45.94
2022-10-11T21:02:35.000Z,47.99
2022-10-11T21:07:34.000Z,48.66
2022-10-11T21:12:35.000Z,46.94
2022-10-11T21:17:35.000Z,45.22
2022-10-11T21:22:35.000Z,44.19
2022-10-11T21:27:35.000Z,44.19
2022-10-11T21:37:35.000Z,42.69
2022-10-11T21:42:39.000Z,44.79
2022-10-11T21:47:35.000Z,47.16
2022-10-11T21:52:34.000Z,47.96
2022-10-11T21:57:34.000Z,49.69
2022-10-11T22:02:35.000Z,48.11
2022-10-11T22:07:34.000Z,48.28
2022-10-11T22:12:34.000Z,48.27
2022-10-11T22:17:35.000Z,49.98
2022-10-11T22:22:35.000Z,49.98
2022-10-11T22:27:35.000Z,51.58
2022-10-11T22:32:35.000Z,53.1
2022-10-11T22:37:35.000Z,53.12
2022-10-11T22:42:37.000Z,53.35
2022-10-11T22:47:35.000Z,55.47
2022-10-11T22:52:35.000Z,56.46
2022-10-11T22:57:35.000Z,52.67
2022-10-11T23:02:35.000Z,52.15
2022-10-11T23:07:34.000Z,52.44
2022-10-11T23:12:35.000Z,50.81
2022-10-11T23:17:35.000Z,51.48
2022-10-11T23:22:35.000Z,52.44
2022-10-11T23:27:35.000Z,52.43
2022-10-11T23:32:35.000Z,53
2022-10-11T23:37:35.000Z,53
2022-10-11T23:42:35.000Z,54
2022-10-11T23:47:34.000Z,55.64
2022-10-11T23:52:35.000Z,53.83
2022-10-11T23:57:35.000Z,54.61
